sensor_id;sensor_type;location;lat;lon;timestamp;pressure;altitude;pressure_sealevel;temperature;humidity
29417;BME280;28421;51.030;4.006;2023-02-12T00:01:58;103892.09;;;7.77;75.89
29417;BME280;28421;51.030;4.006;2023-02-12T00:04:23;103883.84;;;7.64;74.54
29417;BME280;28421;51.030;4.006;2023-02-12T00:06:49;103882.06;;;7.45;70.19
29417;BME280;28421;51.030;4.006;2023-02-12T00:09:14;103886.78;;;7.40;69.99
29417;BME280;28421;51.030;4.006;2023-02-12T00:11:40;103878.75;;;7.40;70.58
29417;BME280;28421;51.030;4.006;2023-02-12T00:14:05;103892.72;;;7.64;71.26
29417;BME280;28421;51.030;4.006;2023-02-12T00:16:31;103861.59;;;7.62;71.55
29417;BME280;28421;51.030;4.006;2023-02-12T00:18:57;103911.00;;;7.91;71.84
29417;BME280;28421;51.030;4.006;2023-02-12T00:21:23;103878.94;;;7.72;72.29
29417;BME280;28421;51.030;4.006;2023-02-12T00:23:49;103888.38;;;7.79;72.40
29417;BME280;28421;51.030;4.006;2023-02-12T00:26:21;103912.66;;;7.93;72.89
29417;BME280;28421;51.030;4.006;2023-02-12T00:28:50;103874.50;;;7.71;72.97
29417;BME280;28421;51.030;4.006;2023-02-12T00:31:22;103909.97;;;7.93;73.01
29417;BME280;28421;51.030;4.006;2023-02-12T05:38:03;103862.59;;;7.25;66.87
29417;BME280;28421;51.030;4.006;2023-02-12T05:40:28;103874.03;;;7.28;67.09
29417;BME280;28421;51.030;4.006;2023-02-12T05:42:53;103876.59;;;7.30;67.36
29417;BME280;28421;51.030;4.006;2023-02-12T05:45:19;103919.63;;;7.44;67.56
29417;BME280;28421;51.030;4.006;2023-02-12T05:47:44;103874.63;;;7.16;68.02
29417;BME280;28421;51.030;4.006;2023-02-12T05:50:10;103916.09;;;7.43;68.28
29417;BME280;28421;51.030;4.006;2023-02-12T05:52:35;103886.44;;;7.29;68.06
29417;BME280;28421;51.030;4.006;2023-02-12T05:55:01;103892.28;;;7.37;68.53
29417;BME280;28421;51.030;4.006;2023-02-12T05:57:26;103922.53;;;7.39;68.66
29417;BME280;28421;51.030;4.006;2023-02-12T05:59:52;103918.06;;;7.40;68.84
29417;BME280;28421;51.030;4.006;2023-02-12T06:02:17;103893.84;;;7.24;68.83
29417;BME280;28421;51.030;4.006;2023-02-12T06:04:43;103886.19;;;7.16;69.25
29417;BME280;28421;51.030;4.006;2023-02-12T06:07:08;103857.47;;;6.84;69.70
29417;BME280;28421;51.030;4.006;2023-02-12T06:09:34;103857.47;;;6.84;69.65
29417;BME280;28421;51.030;4.006;2023-02-12T06:12:00;103890.78;;;6.95;69.26
29417;BME280;28421;51.030;4.006;2023-02-12T06:14:25;103905.97;;;6.95;69.58
29417;BME280;28421;51.030;4.006;2023-02-12T06:16:51;103887.97;;;6.98;69.54
29417;BME280;28421;51.030;4.006;2023-02-12T06:19:18;103886.25;;;6.97;69.49
29417;BME280;28421;51.030;4.006;2023-02-12T06:21:43;103888.91;;;6.97;70.39
29417;BME280;28421;51.030;4.006;2023-02-12T06:24:11;103878.16;;;6.80;68.03
29417;BME280;28421;51.030;4.006;2023-02-12T06:26:37;103883.13;;;6.88;68.96
29417;BME280;28421;51.030;4.006;2023-02-12T06:29:02;103869.41;;;6.77;70.02
29417;BME280;28421;51.030;4.006;2023-02-12T06:31:30;103882.34;;;6.86;69.98
29417;BME280;28421;51.030;4.006;2023-02-12T06:34:00;103877.22;;;6.62;70.10
29417;BME280;28421;51.030;4.006;2023-02-12T06:36:26;103885.97;;;6.85;70.74
29417;BME280;28421;51.030;4.006;2023-02-12T06:38:51;103895.50;;;6.90;70.52
29417;BME280;28421;51.030;4.006;2023-02-12T06:41:17;103889.72;;;6.81;68.66
29417;BME280;28421;51.030;4.006;2023-02-12T06:43:43;103902.84;;;7.04;69.10
29417;BME280;28421;51.030;4.006;2023-02-12T06:46:09;103929.38;;;7.09;69.25
29417;BME280;28421;51.030;4.006;2023-02-12T06:48:35;103881.97;;;6.75;70.36
29417;BME280;28421;51.030;4.006;2023-02-12T06:51:15;103882.44;;;6.84;69.91
29417;BME280;28421;51.030;4.006;2023-02-12T06:53:41;103910.72;;;7.07;69.18
29417;BME280;28421;51.030;4.006;2023-02-12T06:56:08;103920.25;;;7.13;68.20
29417;BME280;28421;51.030;4.006;2023-02-12T06:58:40;103935.00;;;7.21;68.15
29417;BME280;28421;51.030;4.006;2023-02-12T07:01:15;103910.38;;;6.96;67.08
29417;BME280;28421;51.030;4.006;2023-02-12T07:03:54;103913.72;;;7.01;66.81
29417;BME280;28421;51.030;4.006;2023-02-12T07:06:20;103905.19;;;6.74;65.69
29417;BME280;28421;51.030;4.006;2023-02-12T07:08:46;103918.13;;;6.83;65.05
29417;BME280;28421;51.030;4.006;2023-02-12T07:11:12;103924.25;;;7.04;66.15
29417;BME280;28421;51.030;4.006;2023-02-12T07:13:39;103931.63;;;7.18;66.39
29417;BME280;28421;51.030;4.006;2023-02-12T07:16:07;103908.28;;;7.03;66.80
29417;BME280;28421;51.030;4.006;2023-02-12T07:18:34;103942.16;;;7.21;67.11
29417;BME280;28421;51.030;4.006;2023-02-12T07:21:00;103932.78;;;7.12;67.46
29417;BME280;28421;51.030;4.006;2023-02-12T07:23:25;103945.66;;;7.23;67.51
29417;BME280;28421;51.030;4.006;2023-02-12T07:26:01;103967.09;;;7.40;67.76
29417;BME280;28421;51.030;4.006;2023-02-12T07:28:27;103938.78;;;7.17;67.79
29417;BME280;28421;51.030;4.006;2023-02-12T07:30:53;103973.25;;;7.42;67.74
29417;BME280;28421;51.030;4.006;2023-02-12T07:33:19;103952.09;;;7.19;68.46
29417;BME280;28421;51.030;4.006;2023-02-12T07:35:45;103963.44;;;7.24;68.98
29417;BME280;28421;51.030;4.006;2023-02-12T07:38:10;103984.63;;;7.29;68.82
29417;BME280;28421;51.030;4.006;2023-02-12T07:40:36;103966.75;;;7.29;68.67
29417;BME280;28421;51.030;4.006;2023-02-12T07:43:01;103948.25;;;7.25;68.92
29417;BME280;28421;51.030;4.006;2023-02-12T07:45:27;103934.31;;;7.18;68.84
29417;BME280;28421;51.030;4.006;2023-02-12T07:47:52;103988.16;;;7.48;69.31
29417;BME280;28421;51.030;4.006;2023-02-12T07:50:18;103945.00;;;7.18;69.20
29417;BME280;28421;51.030;4.006;2023-02-12T07:52:43;103936.41;;;7.11;69.41
29417;BME280;28421;51.030;4.006;2023-02-12T07:55:09;103920.44;;;7.10;69.13
29417;BME280;28421;51.030;4.006;2023-02-12T07:57:35;103952.84;;;7.40;68.94
29417;BME280;28421;51.030;4.006;2023-02-12T08:00:00;103982.22;;;7.41;69.39
29417;BME280;28421;51.030;4.006;2023-02-12T08:02:26;103943.41;;;6.95;68.62
29417;BME280;28421;51.030;4.006;2023-02-12T08:04:56;103984.63;;;7.29;68.74
29417;BME280;28421;51.030;4.006;2023-02-12T08:07:22;103926.66;;;7.10;68.46
29417;BME280;28421;51.030;4.006;2023-02-12T08:09:47;103963.19;;;7.47;68.54
29417;BME280;28421;51.030;4.006;2023-02-12T08:12:13;103972.81;;;7.52;68.78
29417;BME280;28421;51.030;4.006;2023-02-12T08:14:38;103946.56;;;7.41;68.55
29417;BME280;28421;51.030;4.006;2023-02-12T08:17:03;103947.34;;;7.43;68.64
29417;BME280;28421;51.030;4.006;2023-02-12T08:19:29;103939.66;;;7.18;68.75
29417;BME280;28421;51.030;4.006;2023-02-12T08:21:55;103960.69;;;6.88;69.44
29417;BME280;28421;51.030;4.006;2023-02-12T08:24:21;103951.44;;;6.76;70.01
29417;BME280;28421;51.030;4.006;2023-02-12T08:26:48;103948.75;;;6.95;69.98
29417;BME280;28421;51.030;4.006;2023-02-12T08:29:16;103992.22;;;7.00;69.71
29417;BME280;28421;51.030;4.006;2023-02-12T08:31:44;103984.97;;;7.40;69.82
29417;BME280;28421;51.030;4.006;2023-02-12T08:34:21;103948.44;;;7.39;69.45
29417;BME280;28421;51.030;4.006;2023-02-12T08:36:48;103993.88;;;7.77;69.30
29417;BME280;28421;51.030;4.006;2023-02-12T08:39:15;103999.25;;;7.94;69.13
29417;BME280;28421;51.030;4.006;2023-02-12T08:41:41;103949.06;;;7.80;69.05
29417;BME280;28421;51.030;4.006;2023-02-12T08:44:07;103989.25;;;8.15;68.59
29417;BME280;28421;51.030;4.006;2023-02-12T08:46:38;103992.25;;;8.26;68.43
29417;BME280;28421;51.030;4.006;2023-02-12T08:49:10;103989.38;;;8.29;67.71
29417;BME280;28421;51.030;4.006;2023-02-12T08:51:38;103963.00;;;7.87;67.14
29417;BME280;28421;51.030;4.006;2023-02-12T08:54:06;103974.75;;;7.48;67.33
29417;BME280;28421;51.030;4.006;2023-02-12T08:56:33;103988.78;;;7.53;68.08
29417;BME280;28421;51.030;4.006;2023-02-12T08:59:01;103994.28;;;7.86;67.96
29417;BME280;28421;51.030;4.006;2023-02-12T09:01:28;103990.13;;;7.98;67.17
29417;BME280;28421;51.030;4.006;2023-02-12T09:03:55;103933.50;;;7.52;66.31
29417;BME280;28421;51.030;4.006;2023-02-12T09:06:22;103977.50;;;8.00;66.26
29417;BME280;28421;51.030;4.006;2023-02-12T09:08:48;103948.44;;;8.10;65.84
29417;BME280;28421;51.030;4.006;2023-02-12T09:11:20;103948.97;;;8.34;64.97
29417;BME280;28421;51.030;4.006;2023-02-12T09:13:49;103971.31;;;8.67;64.39
29417;BME280;28421;51.030;4.006;2023-02-12T09:16:14;103957.69;;;8.55;63.22
29417;BME280;28421;51.030;4.006;2023-02-12T09:18:40;103980.81;;;8.22;64.35
29417;BME280;28421;51.030;4.006;2023-02-12T09:21:08;103928.84;;;8.25;63.93
29417;BME280;28421;51.030;4.006;2023-02-12T09:23:35;103914.41;;;8.28;62.85
29417;BME280;28421;51.030;4.006;2023-02-12T09:26:05;103986.81;;;8.78;62.75
29417;BME280;28421;51.030;4.006;2023-02-12T09:28:31;103957.44;;;8.59;61.55
29417;BME280;28421;51.030;4.006;2023-02-12T09:30:56;103951.22;;;8.75;61.74
29417;BME280;28421;51.030;4.006;2023-02-12T09:33:22;103954.31;;;8.51;61.85
29417;BME280;28421;51.030;4.006;2023-02-12T09:35:47;103984.13;;;8.45;62.15
29417;BME280;28421;51.030;4.006;2023-02-12T09:38:13;103921.06;;;8.54;61.82
29417;BME280;28421;51.030;4.006;2023-02-12T09:43:53;103985.50;;;8.69;61.25
29417;BME280;28421;51.030;4.006;2023-02-12T09:46:32;103929.06;;;8.55;60.74
29417;BME280;28421;51.030;4.006;2023-02-12T09:51:52;103959.59;;;9.17;59.38
29417;BME280;28421;51.030;4.006;2023-02-12T09:54:25;103980.19;;;9.33;59.08
29417;BME280;28421;51.030;4.006;2023-02-12T09:56:56;103963.16;;;9.18;59.06
29417;BME280;28421;51.030;4.006;2023-02-12T09:59:33;103945.13;;;8.88;58.86
29417;BME280;28421;51.030;4.006;2023-02-12T10:01:59;103959.75;;;9.14;58.71
29417;BME280;28421;51.030;4.006;2023-02-12T10:04:26;103982.59;;;8.90;59.08
29417;BME280;28421;51.030;4.006;2023-02-12T10:12:36;103952.91;;;9.25;58.70
29417;BME280;28421;51.030;4.006;2023-02-12T10:17:39;103976.91;;;9.28;59.47
29417;BME280;28421;51.030;4.006;2023-02-12T10:27:56;103943.25;;;8.57;58.74
29417;BME280;28421;51.030;4.006;2023-02-12T10:30:52;103968.56;;;9.16;59.84
29417;BME280;28421;51.030;4.006;2023-02-12T10:33:34;103953.78;;;8.93;58.20
29417;BME280;28421;51.030;4.006;2023-02-12T10:39:00;103965.50;;;9.08;58.78
29417;BME280;28421;51.030;4.006;2023-02-12T10:41:31;103995.00;;;9.56;58.12
29417;BME280;28421;51.030;4.006;2023-02-12T10:44:00;103985.69;;;9.77;58.70
29417;BME280;28421;51.030;4.006;2023-02-12T10:46:29;103970.28;;;9.95;57.63
29417;BME280;28421;51.030;4.006;2023-02-12T10:48:56;103970.81;;;10.16;57.31
29417;BME280;28421;51.030;4.006;2023-02-12T10:57:06;103942.25;;;9.85;56.81
29417;BME280;28421;51.030;4.006;2023-02-12T10:59:32;103939.78;;;10.10;56.94
29417;BME280;28421;51.030;4.006;2023-02-12T11:01:58;103989.72;;;10.30;55.08
29417;BME280;28421;51.030;4.006;2023-02-12T11:04:26;103958.66;;;9.64;56.75
29417;BME280;28421;51.030;4.006;2023-02-12T11:09:28;103952.56;;;9.15;56.57
29417;BME280;28421;51.030;4.006;2023-02-12T11:11:54;103949.50;;;9.53;58.23
29417;BME280;28421;51.030;4.006;2023-02-12T11:14:20;103939.28;;;9.59;56.60
29417;BME280;28421;51.030;4.006;2023-02-12T11:16:51;103949.78;;;9.78;58.00
29417;BME280;28421;51.030;4.006;2023-02-12T11:19:26;103924.81;;;10.06;56.17
29417;BME280;28421;51.030;4.006;2023-02-12T11:22:05;103929.31;;;10.06;55.36
29417;BME280;28421;51.030;4.006;2023-02-12T11:24:34;103972.72;;;10.30;56.05
29417;BME280;28421;51.030;4.006;2023-02-12T11:29:44;103977.16;;;10.45;54.72
29417;BME280;28421;51.030;4.006;2023-02-12T11:32:18;103934.81;;;10.04;55.19
29417;BME280;28421;51.030;4.006;2023-02-12T11:35:03;103937.28;;;10.37;55.18
29417;BME280;28421;51.030;4.006;2023-02-12T11:37:29;103963.97;;;10.40;55.90
29417;BME280;28421;51.030;4.006;2023-02-12T11:39:57;103930.56;;;10.30;55.53
29417;BME280;28421;51.030;4.006;2023-02-12T11:42:25;103937.97;;;10.55;55.49
29417;BME280;28421;51.030;4.006;2023-02-12T11:44:51;103963.41;;;10.64;54.94
29417;BME280;28421;51.030;4.006;2023-02-12T11:47:29;103947.38;;;9.74;54.73
29417;BME280;28421;51.030;4.006;2023-02-12T11:52:32;103927.00;;;9.39;56.77
29417;BME280;28421;51.030;4.006;2023-02-12T11:55:03;103934.22;;;9.23;55.70
29417;BME280;28421;51.030;4.006;2023-02-12T12:00:20;103913.50;;;9.71;56.92
29417;BME280;28421;51.030;4.006;2023-02-12T12:02:57;103911.19;;;9.65;55.80
29417;BME280;28421;51.030;4.006;2023-02-12T12:05:30;103911.31;;;9.48;56.09
29417;BME280;28421;51.030;4.006;2023-02-12T12:08:01;103937.88;;;9.68;56.81
29417;BME280;28421;51.030;4.006;2023-02-12T12:10:35;103900.31;;;9.36;57.59
29417;BME280;28421;51.030;4.006;2023-02-12T12:13:05;103915.94;;;9.14;58.01
29417;BME280;28421;51.030;4.006;2023-02-12T12:15:42;103922.00;;;9.02;58.22
29417;BME280;28421;51.030;4.006;2023-02-12T12:18:42;103892.81;;;9.11;57.98
29417;BME280;28421;51.030;4.006;2023-02-12T12:24:27;103859.22;;;9.20;57.71
29417;BME280;28421;51.030;4.006;2023-02-12T12:27:20;103922.63;;;9.83;57.77
29417;BME280;28421;51.030;4.006;2023-02-12T12:30:16;103864.94;;;9.74;56.95
29417;BME280;28421;51.030;4.006;2023-02-12T12:32:44;103891.34;;;9.82;55.44
29417;BME280;28421;51.030;4.006;2023-02-12T12:35:14;103900.75;;;9.75;57.41
29417;BME280;28421;51.030;4.006;2023-02-12T12:37:58;103908.72;;;9.76;56.11
29417;BME280;28421;51.030;4.006;2023-02-12T12:40:52;103862.88;;;9.49;56.14
29417;BME280;28421;51.030;4.006;2023-02-12T12:43:49;103902.56;;;10.18;56.00
29417;BME280;28421;51.030;4.006;2023-02-12T12:52:06;103857.53;;;10.22;56.64
29417;BME280;28421;51.030;4.006;2023-02-12T12:54:40;103887.34;;;10.89;57.47
29417;BME280;28421;51.030;4.006;2023-02-12T13:08:15;103875.22;;;10.40;55.75
29417;BME280;28421;51.030;4.006;2023-02-12T13:11:01;103838.59;;;10.52;55.44
29417;BME280;28421;51.030;4.006;2023-02-12T13:13:34;103874.81;;;11.02;55.35
29417;BME280;28421;51.030;4.006;2023-02-12T13:16:20;103846.97;;;10.89;54.82
29417;BME280;28421;51.030;4.006;2023-02-12T13:19:03;103864.06;;;11.29;55.20
29417;BME280;28421;51.030;4.006;2023-02-12T13:26:41;103861.56;;;10.99;55.69
29417;BME280;28421;51.030;4.006;2023-02-12T13:29:19;103809.97;;;10.78;54.86
29417;BME280;28421;51.030;4.006;2023-02-12T13:31:53;103850.25;;;11.34;54.74
29417;BME280;28421;51.030;4.006;2023-02-12T13:34:20;103807.78;;;10.43;54.60
29417;BME280;28421;51.030;4.006;2023-02-12T13:36:48;103838.16;;;10.87;55.17
29417;BME280;28421;51.030;4.006;2023-02-12T13:47:28;103829.78;;;10.36;56.24
29417;BME280;28421;51.030;4.006;2023-02-12T13:50:05;103836.88;;;10.51;56.79
29417;BME280;28421;51.030;4.006;2023-02-12T13:52:53;103841.69;;;10.46;57.38
29417;BME280;28421;51.030;4.006;2023-02-12T13:55:25;103840.56;;;10.77;56.97
29417;BME280;28421;51.030;4.006;2023-02-12T14:01:01;103802.56;;;10.82;56.01
29417;BME280;28421;51.030;4.006;2023-02-12T14:03:29;103800.00;;;10.80;55.98
29417;BME280;28421;51.030;4.006;2023-02-12T14:09:09;103821.47;;;10.67;56.36
29417;BME280;28421;51.030;4.006;2023-02-12T14:11:47;103820.72;;;10.51;57.20
29417;BME280;28421;51.030;4.006;2023-02-12T14:14:24;103789.06;;;10.28;56.61
29417;BME280;28421;51.030;4.006;2023-02-12T14:16:51;103792.72;;;10.12;57.16
29417;BME280;28421;51.030;4.006;2023-02-12T14:19:37;103807.59;;;10.32;57.79
29417;BME280;28421;51.030;4.006;2023-02-12T14:22:10;103822.25;;;10.55;58.18
29417;BME280;28421;51.030;4.006;2023-02-12T14:27:05;103817.00;;;10.39;57.18
29417;BME280;28421;51.030;4.006;2023-02-12T14:29:32;103824.31;;;10.09;58.15
29417;BME280;28421;51.030;4.006;2023-02-12T14:31:57;103789.91;;;10.14;57.35
29417;BME280;28421;51.030;4.006;2023-02-12T14:34:44;103825.94;;;10.40;57.30
29417;BME280;28421;51.030;4.006;2023-02-12T14:37:13;103820.72;;;10.51;57.41
29417;BME280;28421;51.030;4.006;2023-02-12T14:39:39;103824.47;;;10.49;57.96
29417;BME280;28421;51.030;4.006;2023-02-12T14:49:38;103764.34;;;10.50;57.56
29417;BME280;28421;51.030;4.006;2023-02-12T14:57:23;103782.47;;;10.60;58.27
29417;BME280;28421;51.030;4.006;2023-02-12T14:59:54;103798.47;;;10.76;58.00
29417;BME280;28421;51.030;4.006;2023-02-12T15:02:28;103764.34;;;10.50;57.79
29417;BME280;28421;51.030;4.006;2023-02-12T15:05:00;103804.53;;;10.65;57.36
29417;BME280;28421;51.030;4.006;2023-02-12T15:07:30;103780.50;;;9.78;58.20
29417;BME280;28421;51.030;4.006;2023-02-12T15:10:00;103773.59;;;9.88;58.85
29417;BME280;28421;51.030;4.006;2023-02-12T15:12:41;103767.63;;;9.69;58.84
29417;BME280;28421;51.030;4.006;2023-02-12T15:15:27;103770.53;;;9.80;59.70
29417;BME280;28421;51.030;4.006;2023-02-12T15:21:01;103794.22;;;9.74;60.39
29417;BME280;28421;51.030;4.006;2023-02-12T15:23:33;103757.28;;;9.63;60.02
29417;BME280;28421;51.030;4.006;2023-02-12T15:26:00;103766.97;;;9.94;60.40
29417;BME280;28421;51.030;4.006;2023-02-12T15:28:33;103779.94;;;10.02;60.54
29417;BME280;28421;51.030;4.006;2023-02-12T15:31:02;103756.53;;;9.75;59.91
29417;BME280;28421;51.030;4.006;2023-02-12T15:33:32;103800.00;;;9.96;59.77
29417;BME280;28421;51.030;4.006;2023-02-12T15:35:59;103798.91;;;9.56;60.90
29417;BME280;28421;51.030;4.006;2023-02-12T15:38:34;103789.53;;;9.63;61.89
29417;BME280;28421;51.030;4.006;2023-02-12T15:41:01;103796.72;;;9.32;62.04
29417;BME280;28421;51.030;4.006;2023-02-12T15:43:30;103790.16;;;9.52;61.55
29417;BME280;28421;51.030;4.006;2023-02-12T15:46:00;103763.03;;;9.12;61.51
29417;BME280;28421;51.030;4.006;2023-02-12T15:48:34;103757.41;;;9.17;61.95
29417;BME280;28421;51.030;4.006;2023-02-12T15:53:47;103740.28;;;9.34;62.00
29417;BME280;28421;51.030;4.006;2023-02-12T15:56:15;103763.47;;;9.49;62.45
29417;BME280;28421;51.030;4.006;2023-02-12T15:58:47;103754.50;;;9.20;62.25
29417;BME280;28421;51.030;4.006;2023-02-12T16:01:18;103776.06;;;9.49;62.58
29417;BME280;28421;51.030;4.006;2023-02-12T16:03:49;103746.31;;;9.52;62.36
29417;BME280;28421;51.030;4.006;2023-02-12T16:06:16;103724.16;;;9.48;62.66
29417;BME280;28421;51.030;4.006;2023-02-12T16:08:44;103775.81;;;9.82;62.48
29417;BME280;28421;51.030;4.006;2023-02-12T16:11:11;103785.31;;;10.02;62.06
29417;BME280;28421;51.030;4.006;2023-02-12T16:13:42;103783.38;;;9.61;62.01
29417;BME280;28421;51.030;4.006;2023-02-12T16:18:37;103746.72;;;9.45;63.07
29417;BME280;28421;51.030;4.006;2023-02-12T16:21:16;103750.72;;;9.38;63.36
29417;BME280;28421;51.030;4.006;2023-02-12T16:23:44;103772.63;;;9.46;63.39
29417;BME280;28421;51.030;4.006;2023-02-12T16:26:21;103768.28;;;9.44;63.91
29417;BME280;28421;51.030;4.006;2023-02-12T16:28:51;103741.88;;;9.36;63.93
29417;BME280;28421;51.030;4.006;2023-02-12T16:31:17;103780.41;;;9.65;64.45
29417;BME280;28421;51.030;4.006;2023-02-12T16:33:48;103784.16;;;9.63;64.80
29417;BME280;28421;51.030;4.006;2023-02-12T16:39:00;103777.06;;;9.32;64.06
29417;BME280;28421;51.030;4.006;2023-02-12T16:41:32;103753.66;;;9.19;64.36
29417;BME280;28421;51.030;4.006;2023-02-12T16:46:32;103755.38;;;9.20;63.90
29417;BME280;28421;51.030;4.006;2023-02-12T16:48:59;103746.59;;;9.03;63.89
29417;BME280;28421;51.030;4.006;2023-02-12T16:53:58;103777.34;;;9.27;64.12
29417;BME280;28421;51.030;4.006;2023-02-12T16:56:27;103763.69;;;9.16;64.17
29417;BME280;28421;51.030;4.006;2023-02-12T16:58:57;103723.09;;;8.92;64.56
29417;BME280;28421;51.030;4.006;2023-02-12T17:01:34;103788.59;;;9.34;64.41
29417;BME280;28421;51.030;4.006;2023-02-12T17:04:03;103730.53;;;8.87;65.04
29417;BME280;28421;51.030;4.006;2023-02-12T17:06:31;103749.38;;;9.01;65.42
29417;BME280;28421;51.030;4.006;2023-02-12T17:08:57;103749.22;;;9.04;65.34
29417;BME280;28421;51.030;4.006;2023-02-12T17:11:24;103772.38;;;9.21;64.97
29417;BME280;28421;51.030;4.006;2023-02-12T17:13:51;103743.47;;;9.10;65.19
29417;BME280;28421;51.030;4.006;2023-02-12T17:16:17;103778.03;;;9.31;65.35
29417;BME280;28421;51.030;4.006;2023-02-12T17:18:43;103745.50;;;8.91;65.16
29417;BME280;28421;51.030;4.006;2023-02-12T17:21:26;103774.16;;;9.20;65.54
29417;BME280;28421;51.030;4.006;2023-02-12T17:23:53;103758.59;;;9.11;65.35
29417;BME280;28421;51.030;4.006;2023-02-12T17:26:19;103759.72;;;8.93;65.92
29417;BME280;28421;51.030;4.006;2023-02-12T17:28:45;103728.97;;;8.83;65.56
29417;BME280;28421;51.030;4.006;2023-02-12T17:31:10;103730.94;;;8.95;65.67
29417;BME280;28421;51.030;4.006;2023-02-12T17:33:36;103733.91;;;8.90;66.35
29417;BME280;28421;51.030;4.006;2023-02-12T17:36:02;103777.22;;;9.14;66.64
29417;BME280;28421;51.030;4.006;2023-02-12T17:38:28;103781.22;;;9.07;66.96
29417;BME280;28421;51.030;4.006;2023-02-12T17:40:54;103765.75;;;8.96;67.15
29417;BME280;28421;51.030;4.006;2023-02-12T17:43:19;103768.84;;;9.05;67.09
29417;BME280;28421;51.030;4.006;2023-02-12T17:45:45;103759.16;;;9.02;66.92
29417;BME280;28421;51.030;4.006;2023-02-12T17:48:12;103742.53;;;8.95;66.99
29417;BME280;28421;51.030;4.006;2023-02-12T17:50:39;103742.81;;;8.91;67.36
29417;BME280;28421;51.030;4.006;2023-02-12T17:53:04;103755.22;;;8.30;68.37
29417;BME280;28421;51.030;4.006;2023-02-12T17:55:31;103773.63;;;8.36;68.57
29417;BME280;28421;51.030;4.006;2023-02-12T17:57:56;103742.84;;;8.12;68.50
29417;BME280;28421;51.030;4.006;2023-02-12T18:00:22;103773.88;;;8.16;69.47
29417;BME280;28421;51.030;4.006;2023-02-12T18:02:48;103713.63;;;8.07;68.70
29417;BME280;28421;51.030;4.006;2023-02-12T18:05:14;103767.28;;;8.55;68.44
29417;BME280;28421;51.030;4.006;2023-02-12T18:07:40;103714.34;;;8.27;68.84
29417;BME280;28421;51.030;4.006;2023-02-12T18:10:06;103756.91;;;8.49;69.27
29417;BME280;28421;51.030;4.006;2023-02-12T18:12:33;103753.69;;;8.58;68.78
29417;BME280;28421;51.030;4.006;2023-02-12T18:15:00;103771.59;;;8.73;68.54
29417;BME280;28421;51.030;4.006;2023-02-12T18:17:26;103747.13;;;8.63;68.61
29417;BME280;28421;51.030;4.006;2023-02-12T18:19:52;103704.50;;;8.43;68.57
29417;BME280;28421;51.030;4.006;2023-02-12T18:22:18;103755.41;;;8.75;68.65
29417;BME280;28421;51.030;4.006;2023-02-12T18:24:45;103741.56;;;8.66;68.91
29417;BME280;28421;51.030;4.006;2023-02-12T18:27:11;103743.38;;;8.66;68.95
29417;BME280;28421;51.030;4.006;2023-02-12T18:29:37;103750.91;;;8.75;68.82
29417;BME280;28421;51.030;4.006;2023-02-12T18:32:03;103756.94;;;8.79;69.28
29417;BME280;28421;51.030;4.006;2023-02-12T18:34:28;103729.75;;;8.55;69.38
29417;BME280;28421;51.030;4.006;2023-02-12T18:36:54;103754.91;;;8.68;69.50
29417;BME280;28421;51.030;4.006;2023-02-12T18:39:19;103740.00;;;8.62;69.37
29417;BME280;28421;51.030;4.006;2023-02-12T18:41:45;103737.00;;;8.68;69.47
29417;BME280;28421;51.030;4.006;2023-02-12T18:44:12;103754.94;;;8.82;69.30
29417;BME280;28421;51.030;4.006;2023-02-12T18:46:38;103745.13;;;8.67;69.83
29417;BME280;28421;51.030;4.006;2023-02-12T18:49:04;103741.50;;;8.52;69.53
29417;BME280;28421;51.030;4.006;2023-02-12T18:51:30;103751.00;;;8.58;69.55
29417;BME280;28421;51.030;4.006;2023-02-12T18:54:03;103771.59;;;8.73;69.22
29417;BME280;28421;51.030;4.006;2023-02-12T18:56:31;103772.72;;;8.69;69.44
29417;BME280;28421;51.030;4.006;2023-02-12T18:58:59;103727.13;;;8.37;70.19
29417;BME280;28421;51.030;4.006;2023-02-12T19:01:26;103746.66;;;8.23;70.00
29417;BME280;28421;51.030;4.006;2023-02-12T19:03:54;103722.97;;;8.32;69.71
29417;BME280;28421;51.030;4.006;2023-02-12T19:06:20;103715.44;;;8.22;69.87
29417;BME280;28421;51.030;4.006;2023-02-12T19:08:46;103759.31;;;8.37;70.16
29417;BME280;28421;51.030;4.006;2023-02-12T19:11:11;103756.56;;;8.39;70.52
29417;BME280;28421;51.030;4.006;2023-02-12T19:13:38;103728.16;;;8.19;69.78
29417;BME280;28421;51.030;4.006;2023-02-12T19:16:09;103706.44;;;8.08;69.60
29417;BME280;28421;51.030;4.006;2023-02-12T19:18:34;103731.19;;;8.29;69.61
29417;BME280;28421;51.030;4.006;2023-02-12T19:21:07;103772.03;;;8.65;69.37
29417;BME280;28421;51.030;4.006;2023-02-12T19:23:32;103762.94;;;8.52;69.61
29417;BME280;28421;51.030;4.006;2023-02-12T19:26:06;103772.97;;;8.64;69.35
29417;BME280;28421;51.030;4.006;2023-02-12T19:28:33;103767.78;;;8.61;69.25
29417;BME280;28421;51.030;4.006;2023-02-12T19:31:14;103751.03;;;8.42;69.43
29417;BME280;28421;51.030;4.006;2023-02-12T19:33:40;103752.81;;;8.57;69.57
29417;BME280;28421;51.030;4.006;2023-02-12T19:36:08;103724.69;;;8.33;70.21
29417;BME280;28421;51.030;4.006;2023-02-12T19:38:34;103745.44;;;8.29;70.04
29417;BME280;28421;51.030;4.006;2023-02-12T19:41:11;103730.41;;;8.27;70.14
29417;BME280;28421;51.030;4.006;2023-02-12T19:43:37;103697.38;;;8.10;69.99
29417;BME280;28421;51.030;4.006;2023-02-12T19:46:07;103711.72;;;8.25;69.94
29417;BME280;28421;51.030;4.006;2023-02-12T19:48:33;103737.25;;;8.48;69.91
29417;BME280;28421;51.030;4.006;2023-02-12T19:50:59;103749.13;;;8.44;70.24
29417;BME280;28421;51.030;4.006;2023-02-12T19:53:32;103732.56;;;8.20;69.87
29417;BME280;28421;51.030;4.006;2023-02-12T19:56:01;103725.91;;;8.27;70.26
29417;BME280;28421;51.030;4.006;2023-02-12T19:58:28;103726.50;;;8.32;70.49
29417;BME280;28421;51.030;4.006;2023-02-12T20:00:54;103725.00;;;8.44;69.99
29417;BME280;28421;51.030;4.006;2023-02-12T20:03:20;103715.78;;;8.32;70.04
29417;BME280;28421;51.030;4.006;2023-02-12T20:05:48;103725.56;;;8.33;69.60